Time;durP1;ratioP1;P1;durP2;ratioP2;P2;SDS_P1;SDS_P2;PMS_P1;PMS_P2;Temp;Humidity;BMP_temperature;BMP_pressure;BME280_temperature;BME280_humidity;BME280_pressure;Samples;Min_cycle;Max_cycle;Signal;HPM_P1;HPM_P2
2022/01/17 00:01:12;;;;;;;;;;;5.00;99.90;;;;;;5020733;28;19936;-81
2022/01/17 00:03:42;;;;;;;;;;;5.20;99.90;;;;;;5038668;28;19937;-81
2022/01/17 00:06:12;;;;;;;;;;;5.00;99.90;;;;;;4999346;28;19927;-81
2022/01/17 00:08:45;;;;;;;;;;;5.00;99.90;;;;;;5000549;28;19937;-81
2022/01/17 00:11:14;;;;;;;;;;;5.10;99.90;;;;;;5009551;28;19942;-81
2022/01/17 00:13:45;;;;;;;;;;;5.00;99.90;;;;;;4964220;29;19933;-82
2022/01/17 00:16:18;;;;;;;;;;;5.00;99.90;;;;;;5013803;28;19926;-81
2022/01/17 00:21:15;;;;;;;;;;;5.00;99.90;;;;;;4963715;29;20395;-82
2022/01/17 00:23:44;;;;;;;;;;;4.90;99.90;;;;;;4967007;29;19931;-81
2022/01/17 00:26:14;;;;;;;;;;;4.90;99.90;;;;;;4963789;28;20286;-81
2022/01/17 00:28:41;;;;;;;;;;;4.90;99.90;;;;;;5029661;28;20295;-81
2022/01/17 00:31:09;;;;;;;;;;;4.90;99.90;;;;;;4989510;28;19930;-82
2022/01/17 00:33:38;;;;;;;;;;;4.80;99.90;;;;;;5029295;28;19934;-84
2022/01/17 00:36:05;;;;;;;;;;;3.20;99.90;;;;;;5028641;28;19942;-82
2022/01/17 00:38:34;;;;;;;;;;;4.80;99.90;;;;;;5029121;28;19927;-82
2022/01/17 00:41:02;;;;;;;;;;;3.10;99.90;;;;;;5029559;28;19936;-82
2022/01/17 00:43:30;;;;;;;;;;;4.90;99.90;;;;;;4963162;28;20335;-82
2022/01/17 00:45:58;;;;;;;;;;;4.80;99.90;;;;;;4963074;28;19938;-81
2022/01/17 00:48:29;;;;;;;;;;;4.70;99.90;;;;;;4962277;29;19927;-82
2022/01/17 00:50:57;;;;;;;;;;;4.70;99.90;;;;;;5023450;28;19931;-82
2022/01/17 00:53:30;;;;;;;;;;;4.70;99.90;;;;;;5009726;28;20415;-81
2022/01/17 00:55:58;;;;;;;;;;;5.10;99.90;;;;;;5008022;28;20287;-82
2022/01/17 00:58:26;;;;;;;;;;;4.70;99.90;;;;;;5024866;28;20491;-81
2022/01/17 01:00:54;;;;;;;;;;;4.90;99.90;;;;;;4972259;28;19927;-82
2022/01/17 01:03:22;;;;;;;;;;;4.60;99.90;;;;;;5009450;28;20328;-81
2022/01/17 01:05:51;;;;;;;;;;;4.40;99.90;;;;;;5007094;28;19929;-81
2022/01/17 01:08:18;;;;;;;;;;;3.90;99.90;;;;;;5022797;28;19937;-81
2022/01/17 01:10:49;;;;;;;;;;;4.60;99.90;;;;;;5027684;28;19980;-81
2022/01/17 01:13:22;;;;;;;;;;;4.50;99.90;;;;;;4944386;29;19931;-82
2022/01/17 01:29:20;;;;;;;;;;;4.50;99.90;;;;;;4998153;28;19949;-81
2022/01/17 01:31:57;;;;;;;;;;;4.60;99.90;;;;;;5028620;28;19930;-81
2022/01/17 01:34:34;;;;;;;;;;;4.40;99.90;;;;;;4977027;28;19924;-81
2022/01/17 01:37:04;;;;;;;;;;;4.50;99.90;;;;;;5061379;28;19940;-81
2022/01/17 01:39:33;;;;;;;;;;;4.70;99.90;;;;;;5030698;28;19925;-81
2022/01/17 01:42:13;;;;;;;;;;;4.30;99.90;;;;;;4966714;28;19926;-81
2022/01/17 01:44:42;;;;;;;;;;;4.30;99.90;;;;;;5032505;28;19934;-81
2022/01/17 01:47:11;;;;;;;;;;;4.30;99.90;;;;;;4930025;29;19933;-81
2022/01/17 01:49:38;;;;;;;;;;;4.30;99.90;;;;;;4658696;28;10000061;-81
2022/01/17 01:52:06;;;;;;;;;;;4.20;99.90;;;;;;4957537;29;19927;-81
2022/01/17 01:54:34;;;;;;;;;;;4.10;99.90;;;;;;5012216;28;19933;-81
2022/01/17 01:57:02;;;;;;;;;;;4.10;99.90;;;;;;5027041;28;19927;-81
2022/01/17 01:59:31;;;;;;;;;;;4.10;99.90;;;;;;5027900;28;19938;-81
2022/01/17 02:01:59;;;;;;;;;;;4.00;99.90;;;;;;5044750;28;19927;-81
2022/01/17 02:04:27;;;;;;;;;;;4.10;99.90;;;;;;5046773;28;19928;-81
2022/01/17 02:06:58;;;;;;;;;;;4.20;99.90;;;;;;5033189;28;19925;-81
2022/01/17 02:09:26;;;;;;;;;;;3.90;99.90;;;;;;5065651;28;19925;-82
2022/01/17 02:11:54;;;;;;;;;;;4.00;99.90;;;;;;5018842;28;19926;-81
2022/01/17 02:14:22;;;;;;;;;;;3.90;99.90;;;;;;5028414;28;19929;-81
2022/01/17 02:16:51;;;;;;;;;;;3.90;99.90;;;;;;5026023;28;19929;-81
2022/01/17 02:19:21;;;;;;;;;;;3.90;99.90;;;;;;5012305;28;19930;-82
2022/01/17 02:21:50;;;;;;;;;;;4.20;99.90;;;;;;4961102;28;19931;-81
2022/01/17 02:24:20;;;;;;;;;;;3.90;99.90;;;;;;5028681;28;19930;-81
2022/01/17 02:26:49;;;;;;;;;;;3.90;99.90;;;;;;4993716;28;19931;-81
2022/01/17 02:29:17;;;;;;;;;;;4.00;99.90;;;;;;5027877;28;19937;-82
2022/01/17 02:31:45;;;;;;;;;;;3.90;99.90;;;;;;5010858;28;19927;-82
2022/01/17 02:34:13;;;;;;;;;;;4.00;99.90;;;;;;5021606;28;19935;-81
2022/01/17 02:36:41;;;;;;;;;;;3.80;99.90;;;;;;5044611;28;19928;-82
2022/01/17 02:39:10;;;;;;;;;;;3.90;99.90;;;;;;5026677;28;19927;-82
2022/01/17 02:41:39;;;;;;;;;;;3.90;99.90;;;;;;5027056;28;20006;-82
2022/01/17 02:44:08;;;;;;;;;;;3.80;99.90;;;;;;4962208;29;19937;-82
2022/01/17 02:46:36;;;;;;;;;;;3.80;99.90;;;;;;5029155;28;19933;-82
2022/01/17 02:49:05;;;;;;;;;;;3.80;99.90;;;;;;5029493;28;19936;-82
2022/01/17 02:51:32;;;;;;;;;;;3.80;99.90;;;;;;4962758;29;20478;-83
2022/01/17 02:54:02;;;;;;;;;;;4.00;99.90;;;;;;5029665;28;19930;-83
2022/01/17 02:56:30;;;;;;;;;;;3.80;99.90;;;;;;5028625;28;19938;-83
2022/01/17 02:58:58;;;;;;;;;;;2.40;99.90;;;;;;5028536;28;19931;-83
2022/01/17 03:01:28;;;;;;;;;;;2.00;99.90;;;;;;5045450;28;20334;-81
2022/01/17 03:03:57;;;;;;;;;;;3.60;99.90;;;;;;4942351;28;19927;-81
2022/01/17 03:06:26;;;;;;;;;;;3.80;99.90;;;;;;5063170;28;19925;-81
2022/01/17 03:08:54;;;;;;;;;;;3.70;99.90;;;;;;5016202;28;19938;-83
2022/01/17 03:11:23;;;;;;;;;;;3.60;99.90;;;;;;5032235;28;19937;-81
2022/01/17 03:13:59;;;;;;;;;;;3.60;99.90;;;;;;4934348;28;19926;-81
2022/01/17 03:16:30;;;;;;;;;;;3.50;99.90;;;;;;5049126;28;20410;-81
2022/01/17 03:18:59;;;;;;;;;;;3.50;99.90;;;;;;5016360;28;19930;-81
2022/01/17 03:21:32;;;;;;;;;;;3.50;99.90;;;;;;5047111;28;19933;-81
2022/01/17 03:24:00;;;;;;;;;;;4.70;99.90;;;;;;5031551;28;19927;-81
2022/01/17 03:26:30;;;;;;;;;;;3.50;99.90;;;;;;5028586;28;19930;-82
2022/01/17 03:29:00;;;;;;;;;;;3.40;99.90;;;;;;5016067;28;19930;-80
2022/01/17 03:31:28;;;;;;;;;;;3.40;99.90;;;;;;4948497;28;19930;-81
2022/01/17 03:33:56;;;;;;;;;;;3.40;99.90;;;;;;5047026;28;19927;-81
2022/01/17 03:36:24;;;;;;;;;;;3.30;99.90;;;;;;5045103;28;19929;-82
2022/01/17 03:38:54;;;;;;;;;;;3.40;99.90;;;;;;5034685;28;19929;-82
2022/01/17 03:41:22;;;;;;;;;;;3.30;99.90;;;;;;5008220;28;20416;-82
2022/01/17 03:43:52;;;;;;;;;;;3.30;99.90;;;;;;5016628;28;19933;-82
2022/01/17 03:46:20;;;;;;;;;;;3.20;99.90;;;;;;5050633;28;19932;-80
2022/01/17 03:48:49;;;;;;;;;;;3.30;99.90;;;;;;5019933;28;19933;-81
2022/01/17 03:51:18;;;;;;;;;;;3.40;99.90;;;;;;5034584;28;19948;-80
2022/01/17 03:53:46;;;;;;;;;;;3.30;99.90;;;;;;4969758;28;19937;-81
2022/01/17 03:56:16;;;;;;;;;;;3.20;99.90;;;;;;5033934;28;20347;-81
2022/01/17 03:58:43;;;;;;;;;;;3.20;99.90;;;;;;5032251;28;19933;-80
2022/01/17 04:01:12;;;;;;;;;;;3.30;99.90;;;;;;5026684;28;19934;-82
2022/01/17 04:03:40;;;;;;;;;;;3.30;99.90;;;;;;5033012;28;20394;-81
2022/01/17 04:06:09;;;;;;;;;;;3.30;99.90;;;;;;5015716;28;20021;-81
2022/01/17 04:08:37;;;;;;;;;;;3.20;99.90;;;;;;4965607;29;19930;-81
2022/01/17 04:11:05;;;;;;;;;;;3.30;99.90;;;;;;5031383;28;20006;-81
2022/01/17 04:13:34;;;;;;;;;;;3.30;99.90;;;;;;5031306;28;19941;-82
2022/01/17 04:16:02;;;;;;;;;;;3.50;99.90;;;;;;5015130;28;20866;-81
2022/01/17 04:18:30;;;;;;;;;;;3.30;99.90;;;;;;5031402;28;19933;-81
2022/01/17 04:21:02;;;;;;;;;;;3.30;99.90;;;;;;4965549;29;20321;-82
2022/01/17 04:23:30;;;;;;;;;;;3.30;99.90;;;;;;4948207;29;20015;-82
2022/01/17 04:25:58;;;;;;;;;;;3.40;99.90;;;;;;5012413;28;19938;-82
2022/01/17 04:28:26;;;;;;;;;;;3.40;99.90;;;;;;5000709;28;19933;-82
2022/01/17 04:30:55;;;;;;;;;;;3.20;99.90;;;;;;5028464;28;19930;-80
2022/01/17 04:33:23;;;;;;;;;;;3.30;99.90;;;;;;5011883;28;19950;-82
2022/01/17 04:35:51;;;;;;;;;;;3.20;99.90;;;;;;5031654;28;19936;-81
2022/01/17 04:38:19;;;;;;;;;;;3.40;99.90;;;;;;5048282;28;19925;-82
2022/01/17 04:40:49;;;;;;;;;;;3.20;99.90;;;;;;5029417;28;19946;-84
2022/01/17 04:43:43;;;;;;;;;;;3.40;99.90;;;;;;5010890;28;19945;-82
2022/01/17 04:46:10;;;;;;;;;;;3.20;99.90;;;;;;5030192;28;19930;-83
2022/01/17 04:48:38;;;;;;;;;;;3.20;99.90;;;;;;5042524;28;19953;-84
2022/01/17 04:51:06;;;;;;;;;;;3.10;99.90;;;;;;5034537;28;20576;-81
2022/01/17 04:53:34;;;;;;;;;;;3.10;99.90;;;;;;5014564;28;19933;-81
2022/01/17 04:56:02;;;;;;;;;;;3.00;99.90;;;;;;5014367;28;19950;-82
2022/01/17 04:58:30;;;;;;;;;;;3.10;99.90;;;;;;5047388;28;19934;-82
2022/01/17 05:00:59;;;;;;;;;;;3.10;99.90;;;;;;5038707;28;19930;-81
2022/01/17 05:03:26;;;;;;;;;;;3.20;99.90;;;;;;5030517;28;19938;-82
2022/01/17 05:05:54;;;;;;;;;;;3.00;99.90;;;;;;5058959;28;19935;-81
2022/01/17 05:08:23;;;;;;;;;;;3.10;99.90;;;;;;5047696;28;19943;-81
2022/01/17 05:10:54;;;;;;;;;;;3.20;99.90;;;;;;5047012;28;20130;-81
2022/01/17 05:13:31;;;;;;;;;;;3.00;99.90;;;;;;4964969;28;19953;-82
2022/01/17 05:16:13;;;;;;;;;;;3.00;99.90;;;;;;5030781;28;19926;-81
2022/01/17 05:21:09;;;;;;;;;;;3.00;99.90;;;;;;5012642;28;19933;-81
2022/01/17 05:23:39;;;;;;;;;;;2.90;99.90;;;;;;4952422;29;20755;-81
2022/01/17 05:26:08;;;;;;;;;;;2.90;99.90;;;;;;5010299;28;19926;-81
2022/01/17 05:28:36;;;;;;;;;;;2.90;99.90;;;;;;5014684;28;19917;-82
2022/01/17 05:31:04;;;;;;;;;;;2.80;99.90;;;;;;5016623;28;20353;-80
2022/01/17 05:33:32;;;;;;;;;;;2.90;99.90;;;;;;5038741;28;19950;-81
2022/01/17 05:36:00;;;;;;;;;;;2.40;99.90;;;;;;5031219;28;19933;-81
2022/01/17 05:38:28;;;;;;;;;;;2.80;99.90;;;;;;5031003;28;19926;-82
2022/01/17 05:41:01;;;;;;;;;;;2.90;99.90;;;;;;5042401;28;19933;-80
2022/01/17 05:43:33;;;;;;;;;;;2.80;99.90;;;;;;5012686;28;19926;-81
2022/01/17 05:46:07;;;;;;;;;;;3.10;99.90;;;;;;4948170;28;19930;-81
2022/01/17 05:48:36;;;;;;;;;;;3.80;99.90;;;;;;5019879;28;19941;-80
2022/01/17 05:51:04;;;;;;;;;;;3.10;99.90;;;;;;5027914;28;19933;-82
2022/01/17 05:53:33;;;;;;;;;;;2.80;99.90;;;;;;5006966;28;19927;-81
2022/01/17 05:56:01;;;;;;;;;;;2.80;99.90;;;;;;4991974;28;19931;-81
2022/01/17 05:58:28;;;;;;;;;;;2.80;99.90;;;;;;5027677;28;19926;-81
2022/01/17 06:00:57;;;;;;;;;;;2.80;99.90;;;;;;5028163;28;19945;-81
2022/01/17 06:03:25;;;;;;;;;;;2.90;99.90;;;;;;5011582;28;19942;-81
2022/01/17 06:05:54;;;;;;;;;;;2.90;99.90;;;;;;5028149;28;19931;-80
2022/01/17 06:08:22;;;;;;;;;;;2.90;99.90;;;;;;5011404;28;19934;-81
2022/01/17 06:10:50;;;;;;;;;;;2.90;99.90;;;;;;4945589;28;20692;-82
2022/01/17 06:13:18;;;;;;;;;;;2.90;99.90;;;;;;4962236;29;19941;-81
2022/01/17 06:15:46;;;;;;;;;;;2.90;99.90;;;;;;5045268;28;19937;-82
2022/01/17 06:18:14;;;;;;;;;;;2.80;99.90;;;;;;4961943;29;19926;-82
2022/01/17 06:20:43;;;;;;;;;;;2.80;99.90;;;;;;4962059;29;19930;-81
2022/01/17 06:23:10;;;;;;;;;;;2.80;99.90;;;;;;5044582;28;19926;-82
2022/01/17 06:25:38;;;;;;;;;;;2.80;99.90;;;;;;5025428;28;19942;-82
2022/01/17 06:28:06;;;;;;;;;;;2.80;99.90;;;;;;5025426;28;19930;-81
2022/01/17 06:30:35;;;;;;;;;;;2.80;99.90;;;;;;5012519;28;20370;-80
2022/01/17 06:33:03;;;;;;;;;;;2.80;99.90;;;;;;5028309;28;19938;-81
2022/01/17 06:35:31;;;;;;;;;;;2.80;99.90;;;;;;5045088;28;19936;-81
2022/01/17 06:37:59;;;;;;;;;;;2.70;99.90;;;;;;5044647;28;19929;-82
2022/01/17 06:40:28;;;;;;;;;;;3.10;99.90;;;;;;5028931;28;19938;-82
2022/01/17 06:42:57;;;;;;;;;;;2.80;99.90;;;;;;5030565;28;20319;-81
2022/01/17 06:45:26;;;;;;;;;;;2.90;99.90;;;;;;4666346;28;10000135;-81
2022/01/17 06:47:54;;;;;;;;;;;2.80;99.90;;;;;;4952108;29;19941;-81
2022/01/17 06:50:23;;;;;;;;;;;3.00;99.90;;;;;;5031950;28;19942;-80
2022/01/17 06:52:52;;;;;;;;;;;2.80;99.90;;;;;;5029848;28;19942;-82
2022/01/17 06:55:23;;;;;;;;;;;2.90;99.90;;;;;;5014953;28;19933;-81
2022/01/17 06:57:51;;;;;;;;;;;2.70;99.90;;;;;;4958380;28;19926;-81
2022/01/17 07:00:22;;;;;;;;;;;2.80;99.90;;;;;;4964820;28;19933;-82
2022/01/17 07:02:52;;;;;;;;;;;2.90;99.90;;;;;;5034272;28;19931;-83
2022/01/17 07:05:21;;;;;;;;;;;2.80;99.90;;;;;;5007820;28;20401;-81
2022/01/17 07:07:48;;;;;;;;;;;2.70;99.90;;;;;;4993558;28;20828;-83
2022/01/17 07:10:19;;;;;;;;;;;2.80;99.90;;;;;;5029106;28;19926;-81
2022/01/17 07:12:46;;;;;;;;;;;2.70;99.90;;;;;;4949541;28;20151;-82
2022/01/17 07:15:15;;;;;;;;;;;2.70;99.90;;;;;;5043704;28;19937;-82
2022/01/17 07:17:43;;;;;;;;;;;2.70;99.90;;;;;;5032534;28;19930;-80
2022/01/17 07:20:13;;;;;;;;;;;2.50;99.90;;;;;;4963602;28;19926;-80
2022/01/17 07:22:41;;;;;;;;;;;2.90;99.90;;;;;;5026323;28;19930;-81
2022/01/17 07:25:10;;;;;;;;;;;2.60;99.90;;;;;;5014945;28;19933;-80
2022/01/17 07:27:40;;;;;;;;;;;2.70;99.90;;;;;;5033856;28;19930;-81
2022/01/17 07:30:09;;;;;;;;;;;2.80;99.90;;;;;;5030665;28;19930;-81
2022/01/17 07:32:38;;;;;;;;;;;2.60;99.90;;;;;;5020296;28;19930;-81
2022/01/17 07:35:07;;;;;;;;;;;2.70;99.90;;;;;;5030722;28;19937;-81
2022/01/17 07:37:37;;;;;;;;;;;2.70;99.90;;;;;;4940812;28;19927;-81
2022/01/17 07:40:05;;;;;;;;;;;2.60;99.90;;;;;;5032798;28;19932;-80
2022/01/17 07:42:33;;;;;;;;;;;2.70;99.90;;;;;;5010399;28;19930;-81
2022/01/17 07:45:09;;;;;;;;;;;2.60;99.90;;;;;;5045158;28;19930;-80
2022/01/17 07:48:08;;;;;;;;;;;2.70;99.90;;;;;;5016730;28;19989;-80
2022/01/17 07:50:35;;;;;;;;;;;2.70;99.90;;;;;;4963589;28;19937;-82
2022/01/17 07:53:03;;;;;;;;;;;2.70;99.90;;;;;;5028035;28;20315;-80
2022/01/17 07:55:31;;;;;;;;;;;2.80;99.90;;;;;;5027642;28;19941;-81
2022/01/17 07:57:58;;;;;;;;;;;2.70;99.90;;;;;;4963147;29;19931;-81
2022/01/17 08:00:26;;;;;;;;;;;2.80;99.90;;;;;;5009692;28;19942;-81
2022/01/17 08:02:56;;;;;;;;;;;2.70;99.90;;;;;;4960615;28;19926;-80
2022/01/17 08:05:24;;;;;;;;;;;2.70;99.90;;;;;;5028113;28;19926;-80
2022/01/17 08:07:52;;;;;;;;;;;2.70;99.90;;;;;;5024059;28;19927;-81
2022/01/17 08:10:19;;;;;;;;;;;2.70;99.90;;;;;;4953704;28;19938;-81
2022/01/17 08:12:47;;;;;;;;;;;2.70;99.90;;;;;;5027252;28;19926;-80
2022/01/17 08:15:16;;;;;;;;;;;2.70;99.90;;;;;;5014785;28;19942;-79
2022/01/17 08:17:45;;;;;;;;;;;2.70;99.90;;;;;;5026614;28;19930;-80
2022/01/17 08:20:22;;;;;;;;;;;2.70;99.90;;;;;;4964133;28;19946;-80
2022/01/17 08:22:50;;;;;;;;;;;2.80;99.90;;;;;;5046659;28;19926;-79
2022/01/17 08:25:18;;;;;;;;;;;2.80;99.90;;;;;;5046392;28;19940;-80
2022/01/17 08:27:46;;;;;;;;;;;2.70;99.90;;;;;;4961996;29;19941;-80
2022/01/17 08:30:14;;;;;;;;;;;2.70;99.90;;;;;;5029019;28;20681;-80
2022/01/17 08:33:03;;;;;;;;;;;2.60;99.90;;;;;;4959975;29;19972;-79
2022/01/17 08:35:31;;;;;;;;;;;2.80;99.90;;;;;;5026761;28;19925;-80
2022/01/17 08:38:00;;;;;;;;;;;2.80;99.90;;;;;;5028659;28;19927;-80
2022/01/17 08:40:28;;;;;;;;;;;3.00;99.90;;;;;;4962954;28;19926;-80
2022/01/17 08:42:57;;;;;;;;;;;3.00;99.90;;;;;;4960446;28;19935;-80
2022/01/17 08:45:26;;;;;;;;;;;2.90;99.90;;;;;;4980037;28;19925;-80
2022/01/17 08:48:10;;;;;;;;;;;2.90;99.90;;;;;;4993525;28;20387;-80
2022/01/17 08:50:38;;;;;;;;;;;2.90;99.90;;;;;;4944187;29;19931;-80
2022/01/17 08:53:10;;;;;;;;;;;3.00;99.90;;;;;;5006401;28;19930;-80
2022/01/17 08:55:37;;;;;;;;;;;3.10;99.90;;;;;;4957682;29;20002;-80
2022/01/17 08:58:05;;;;;;;;;;;3.00;99.90;;;;;;5015454;28;19938;-81
2022/01/17 09:00:33;;;;;;;;;;;3.00;99.90;;;;;;5020834;28;19941;-79
2022/01/17 09:03:19;;;;;;;;;;;3.10;99.90;;;;;;4956946;29;19930;-81
2022/01/17 09:05:48;;;;;;;;;;;3.30;99.90;;;;;;5012400;28;19937;-79
2022/01/17 09:08:18;;;;;;;;;;;3.10;99.90;;;;;;5044959;28;19931;-80
2022/01/17 09:10:47;;;;;;;;;;;3.20;99.90;;;;;;5028064;28;20544;-80
2022/01/17 09:13:15;;;;;;;;;;;3.20;99.90;;;;;;5022885;28;20030;-82
2022/01/17 09:15:45;;;;;;;;;;;3.50;99.90;;;;;;4960443;28;19930;-80
2022/01/17 09:18:14;;;;;;;;;;;3.30;99.90;;;;;;4984881;28;19930;-80
2022/01/17 09:20:42;;;;;;;;;;;3.40;99.90;;;;;;5028051;28;19926;-79
2022/01/17 09:23:16;;;;;;;;;;;3.40;99.90;;;;;;5008787;28;19937;-79
2022/01/17 09:26:23;;;;;;;;;;;3.50;99.90;;;;;;4944269;28;19938;-82
2022/01/17 09:28:52;;;;;;;;;;;3.50;99.90;;;;;;5016088;28;19926;-80
2022/01/17 09:31:20;;;;;;;;;;;3.60;99.90;;;;;;4945048;29;19939;-80
2022/01/17 09:33:48;;;;;;;;;;;3.60;99.90;;;;;;4969557;28;19926;-79
2022/01/17 09:36:16;;;;;;;;;;;3.70;99.90;;;;;;5063289;28;19931;-79
2022/01/17 09:38:44;;;;;;;;;;;3.80;99.90;;;;;;5023310;28;19927;-79
2022/01/17 09:41:12;;;;;;;;;;;3.80;99.90;;;;;;5019886;28;19926;-79
2022/01/17 09:43:46;;;;;;;;;;;3.80;99.90;;;;;;5022377;28;19934;-79
2022/01/17 09:46:15;;;;;;;;;;;3.90;99.90;;;;;;4961495;28;19926;-79
2022/01/17 09:48:48;;;;;;;;;;;3.90;99.90;;;;;;4961854;28;19931;-79
2022/01/17 09:54:06;;;;;;;;;;;4.00;99.90;;;;;;4967818;28;19933;-78
2022/01/17 09:56:35;;;;;;;;;;;4.10;99.90;;;;;;5029607;28;19929;-79
2022/01/17 09:59:03;;;;;;;;;;;4.10;99.90;;;;;;5012752;28;19936;-79
2022/01/17 10:01:32;;;;;;;;;;;4.10;99.90;;;;;;5028692;28;19949;-79
2022/01/17 10:04:06;;;;;;;;;;;4.20;99.90;;;;;;5054879;28;19924;-80
2022/01/17 10:06:35;;;;;;;;;;;4.20;99.90;;;;;;4958710;28;20211;-79
2022/01/17 10:09:09;;;;;;;;;;;4.20;99.90;;;;;;5012104;28;19938;-79
2022/01/17 10:11:57;;;;;;;;;;;4.30;99.90;;;;;;5027380;28;19930;-79
2022/01/17 10:14:24;;;;;;;;;;;4.40;99.90;;;;;;5008635;28;19927;-79
2022/01/17 10:16:52;;;;;;;;;;;4.40;99.90;;;;;;5019772;28;19931;-79
2022/01/17 10:19:24;;;;;;;;;;;4.40;99.90;;;;;;5030693;28;19933;-79
2022/01/17 10:21:54;;;;;;;;;;;4.50;99.90;;;;;;5008507;28;19930;-79
2022/01/17 10:24:28;;;;;;;;;;;4.60;99.90;;;;;;5001338;28;19934;-80
2022/01/17 10:27:14;;;;;;;;;;;4.60;99.90;;;;;;5023131;28;19933;-79
2022/01/17 10:35:21;;;;;;;;;;;4.70;99.90;;;;;;5018707;28;20136;-79
2022/01/17 10:38:00;;;;;;;;;;;4.80;99.90;;;;;;5008944;28;19930;-79
2022/01/17 10:40:31;;;;;;;;;;;4.80;99.90;;;;;;5030564;28;19927;-79
2022/01/17 10:43:01;;;;;;;;;;;4.90;99.90;;;;;;5021650;28;19933;-79
2022/01/17 10:45:33;;;;;;;;;;;4.90;99.90;;;;;;5028769;28;19930;-79
2022/01/17 10:48:02;;;;;;;;;;;5.40;99.90;;;;;;5043497;28;19927;-79
2022/01/17 10:50:31;;;;;;;;;;;5.00;99.90;;;;;;5028033;28;19930;-80
2022/01/17 10:53:01;;;;;;;;;;;5.00;99.90;;;;;;5056162;28;19925;-80
2022/01/17 10:55:39;;;;;;;;;;;5.10;99.90;;;;;;5027628;28;19929;-80
2022/01/17 10:58:09;;;;;;;;;;;5.10;99.90;;;;;;5033120;28;19947;-79
2022/01/17 11:00:42;;;;;;;;;;;5.20;99.90;;;;;;5006456;28;20568;-79
2022/01/17 11:03:15;;;;;;;;;;;5.20;99.90;;;;;;5029756;28;19932;-80
2022/01/17 11:05:48;;;;;;;;;;;5.20;99.90;;;;;;5023535;28;19944;-80
2022/01/17 11:08:17;;;;;;;;;;;5.30;99.90;;;;;;5040627;28;19925;-80
2022/01/17 11:10:46;;;;;;;;;;;5.40;99.90;;;;;;5039220;28;19932;-80
2022/01/17 11:13:17;;;;;;;;;;;5.40;99.90;;;;;;5037927;28;19932;-81
2022/01/17 11:15:46;;;;;;;;;;;5.70;99.90;;;;;;5041638;28;19929;-80
2022/01/17 11:18:18;;;;;;;;;;;5.40;99.90;;;;;;5041984;28;19929;-80
2022/01/17 11:20:47;;;;;;;;;;;5.60;99.90;;;;;;5042205;28;19935;-80
2022/01/17 11:23:15;;;;;;;;;;;5.80;99.90;;;;;;5043695;28;19932;-81
2022/01/17 11:25:44;;;;;;;;;;;5.70;99.90;;;;;;5023786;28;19936;-80
2022/01/17 11:28:16;;;;;;;;;;;4.90;99.90;;;;;;5043098;28;19925;-80
2022/01/17 11:30:46;;;;;;;;;;;6.30;99.90;;;;;;5047202;28;20360;-80
2022/01/17 11:33:15;;;;;;;;;;;5.80;99.90;;;;;;5046691;28;19925;-81
2022/01/17 11:35:46;;;;;;;;;;;5.90;99.90;;;;;;5045967;28;19933;-80
2022/01/17 11:38:16;;;;;;;;;;;5.90;99.90;;;;;;5013773;28;19925;-82
2022/01/17 11:40:44;;;;;;;;;;;5.90;99.90;;;;;;5016738;28;19996;-81
2022/01/17 11:43:17;;;;;;;;;;;6.00;99.90;;;;;;5027699;28;19955;-80
2022/01/17 11:45:46;;;;;;;;;;;6.10;99.90;;;;;;5054205;28;19995;-80
2022/01/17 11:48:17;;;;;;;;;;;6.10;99.90;;;;;;5043964;28;20118;-82
2022/01/17 11:50:48;;;;;;;;;;;6.20;99.90;;;;;;5040040;28;19929;-82
2022/01/17 11:53:16;;;;;;;;;;;6.20;99.90;;;;;;4704688;28;10000550;-80
2022/01/17 11:55:46;;;;;;;;;;;6.30;99.90;;;;;;5066665;28;20501;-81
2022/01/17 11:58:24;;;;;;;;;;;6.30;99.90;;;;;;5053131;28;19932;-80
2022/01/17 12:01:03;;;;;;;;;;;6.30;99.90;;;;;;5045548;28;19931;-80
2022/01/17 12:03:55;;;;;;;;;;;6.50;99.90;;;;;;5067565;28;20353;-81
2022/01/17 12:06:25;;;;;;;;;;;6.50;99.90;;;;;;5030989;28;19928;-82
2022/01/17 12:09:16;;;;;;;;;;;6.50;99.90;;;;;;5039798;28;19932;-81
2022/01/17 12:11:46;;;;;;;;;;;6.60;99.90;;;;;;5069974;28;19938;-81
2022/01/17 12:14:27;;;;;;;;;;;5.70;99.90;;;;;;5083532;28;19932;-81
2022/01/17 12:17:15;;;;;;;;;;;6.90;99.90;;;;;;5064916;28;19925;-81
2022/01/17 12:20:02;;;;;;;;;;;6.90;99.90;;;;;;5078593;28;20334;-81
2022/01/17 12:22:31;;;;;;;;;;;6.90;99.90;;;;;;5049178;28;19929;-82
2022/01/17 12:25:01;;;;;;;;;;;7.00;99.90;;;;;;5081907;28;19928;-81
2022/01/17 12:27:29;;;;;;;;;;;7.00;99.90;;;;;;5081090;28;20402;-81
2022/01/17 12:30:10;;;;;;;;;;;7.10;99.90;;;;;;5081599;28;20266;-82
2022/01/17 12:32:39;;;;;;;;;;;7.10;99.90;;;;;;5065272;28;20303;-83
2022/01/17 12:35:08;;;;;;;;;;;7.30;99.90;;;;;;5050469;28;19934;-81
2022/01/17 12:37:39;;;;;;;;;;;7.50;99.90;;;;;;5082998;28;20010;-81
2022/01/17 12:40:19;;;;;;;;;;;7.40;99.90;;;;;;5064717;28;19932;-81
2022/01/17 12:42:50;;;;;;;;;;;7.50;99.90;;;;;;5064310;28;19933;-82
2022/01/17 12:45:20;;;;;;;;;;;7.50;99.90;;;;;;5064071;28;19934;-83
2022/01/17 12:47:49;;;;;;;;;;;7.60;99.90;;;;;;5080628;28;19928;-80
2022/01/17 12:50:34;;;;;;;;;;;7.60;99.90;;;;;;5080631;28;19925;-82
2022/01/17 12:53:05;;;;;;;;;;;7.60;99.90;;;;;;5044434;28;20392;-81
2022/01/17 12:55:41;;;;;;;;;;;7.80;99.90;;;;;;5045907;28;19931;-79
2022/01/17 12:58:15;;;;;;;;;;;7.80;99.90;;;;;;5044846;28;19931;-77
2022/01/17 13:00:47;;;;;;;;;;;7.90;99.90;;;;;;5063137;28;19924;-78
2022/01/17 13:03:16;;;;;;;;;;;8.10;99.90;;;;;;5079983;28;19935;-79
2022/01/17 13:05:44;;;;;;;;;;;8.20;99.90;;;;;;5078617;28;20073;-80
2022/01/17 13:08:13;;;;;;;;;;;8.30;99.90;;;;;;5062473;28;19928;-79
2022/01/17 13:10:52;;;;;;;;;;;8.60;99.90;;;;;;5029631;28;19935;-78
2022/01/17 13:13:20;;;;;;;;;;;8.60;99.90;;;;;;5080292;28;19939;-80
2022/01/17 13:16:02;;;;;;;;;;;8.70;99.90;;;;;;5082695;28;19928;-79
2022/01/17 13:18:31;;;;;;;;;;;8.70;99.90;;;;;;5043795;28;20319;-78
2022/01/17 13:21:01;;;;;;;;;;;8.80;99.90;;;;;;5046010;28;19949;-78
2022/01/17 13:24:32;;;;;;;;;;;8.90;99.90;;;;;;5072450;28;20252;-79
2022/01/17 13:26:34;;;;;;;;;;;9.00;99.90;;;;;;5040100;28;20003;-79
2022/01/17 13:29:06;;;;;;;;;;;9.00;99.90;;;;;;5071443;28;19925;-83
2022/01/17 13:31:37;;;;;;;;;;;9.10;99.90;;;;;;5064019;28;19925;-84
2022/01/17 13:34:28;;;;;;;;;;;9.10;99.90;;;;;;5055567;28;19935;-83
2022/01/17 13:37:00;;;;;;;;;;;9.10;99.90;;;;;;5063476;28;19924;-81
2022/01/17 13:39:49;;;;;;;;;;;9.20;99.90;;;;;;5022189;28;19929;-82
2022/01/17 13:42:18;;;;;;;;;;;9.20;99.90;;;;;;5048703;28;19925;-77
2022/01/17 13:44:51;;;;;;;;;;;9.30;99.90;;;;;;5079483;28;19935;-77
2022/01/17 13:47:21;;;;;;;;;;;9.30;99.90;;;;;;5062854;28;20331;-78
2022/01/17 13:49:49;;;;;;;;;;;9.30;99.90;;;;;;5064904;28;19925;-79
2022/01/17 13:52:19;;;;;;;;;;;9.40;99.90;;;;;;5031546;28;19927;-78
2022/01/17 13:54:51;;;;;;;;;;;9.50;99.90;;;;;;4959708;28;19930;-80
2022/01/17 13:57:41;;;;;;;;;;;9.40;99.90;;;;;;4957136;29;19934;-78
2022/01/17 14:00:10;;;;;;;;;;;9.50;99.90;;;;;;4955397;29;19937;-79
2022/01/17 14:02:39;;;;;;;;;;;9.60;99.90;;;;;;4955484;29;19930;-78
2022/01/17 14:05:12;;;;;;;;;;;9.60;99.90;;;;;;5022272;28;19925;-77
2022/01/17 14:07:45;;;;;;;;;;;9.70;99.90;;;;;;4991121;28;19941;-79
2022/01/17 14:10:18;;;;;;;;;;;9.70;99.90;;;;;;4961299;28;19930;-78
2022/01/17 14:12:46;;;;;;;;;;;9.70;99.90;;;;;;4944831;29;20030;-79
2022/01/17 14:15:25;;;;;;;;;;;9.80;99.90;;;;;;4943253;28;19930;-80
2022/01/17 14:18:02;;;;;;;;;;;9.80;99.90;;;;;;4956264;28;19936;-80
2022/01/17 14:20:31;;;;;;;;;;;9.80;99.90;;;;;;4943958;29;19956;-78
2022/01/17 14:23:00;;;;;;;;;;;9.90;99.90;;;;;;4960575;29;19943;-77
2022/01/17 14:25:29;;;;;;;;;;;9.90;99.90;;;;;;4957709;29;20311;-81
2022/01/17 14:28:01;;;;;;;;;;;9.90;99.90;;;;;;4957416;28;19930;-79
2022/01/17 14:30:32;;;;;;;;;;;9.90;99.90;;;;;;4956837;29;19930;-78
2022/01/17 14:33:09;;;;;;;;;;;9.90;99.90;;;;;;4952786;28;20430;-82
2022/01/17 14:35:38;;;;;;;;;;;9.90;99.90;;;;;;4942318;29;19927;-82
2022/01/17 14:38:07;;;;;;;;;;;10.00;99.90;;;;;;5008723;28;20359;-82
2022/01/17 14:40:35;;;;;;;;;;;9.80;99.90;;;;;;5022944;28;19934;-81
2022/01/17 14:43:13;;;;;;;;;;;9.80;99.90;;;;;;4957828;28;19936;-80
2022/01/17 14:45:48;;;;;;;;;;;9.80;99.90;;;;;;4954579;29;19930;-81
2022/01/17 14:48:17;;;;;;;;;;;9.70;99.90;;;;;;4960525;29;19926;-81
2022/01/17 14:50:45;;;;;;;;;;;9.60;99.90;;;;;;4630440;28;10000333;-81
2022/01/17 14:53:15;;;;;;;;;;;9.60;99.90;;;;;;5002209;28;19937;-81
2022/01/17 15:01:26;;;;;;;;;;;9.50;99.90;;;;;;5038606;28;19930;-81
2022/01/17 15:03:55;;;;;;;;;;;9.10;99.90;;;;;;4977562;28;19931;-81
2022/01/17 15:06:23;;;;;;;;;;;9.40;99.90;;;;;;5044693;28;20474;-81
2022/01/17 15:08:55;;;;;;;;;;;9.40;99.90;;;;;;5029253;28;20376;-81
2022/01/17 15:11:24;;;;;;;;;;;9.40;99.90;;;;;;5046814;28;20493;-80
2022/01/17 15:13:52;;;;;;;;;;;9.30;99.90;;;;;;5031937;28;19937;-80
2022/01/17 15:16:22;;;;;;;;;;;9.60;99.90;;;;;;5051866;28;19930;-84
2022/01/17 15:18:50;;;;;;;;;;;9.60;99.90;;;;;;4979780;28;19941;-81
2022/01/17 15:21:31;;;;;;;;;;;9.60;99.90;;;;;;5052697;28;19933;-84